Bookmark and Share
Track history (hours):
 

No.3tokuyomaru

Last reported at 2014-Apr-19 05:20 UTC. Time now 2014-Apr-20 16:04 UTC.
Position N 34°37' E 134°59'.

Length 67 m; draft 4.6 m.

Type: Tanker. MMSI: 431002151.

NotesDate/timePositionNaut miles runAvg speedWind from/ knotsBaromVisibWave heightAir tempDewpointWater temp
2014-Apr-19 05:20N 34°37' E 134°59'911.1
2014-Apr-19 04:33N 34°35' E 135°09'1312.3
2014-Apr-19 03:31N 34°33' E 135°24'1 0.2
2014-Apr-18 23:32N 34°33' E 135°23'4 3.0
2014-Apr-18 22:19N 34°32' E 135°19'0 0.0
2014-Apr-18 21:33N 34°32' E 135°19'0 0.0
2014-Apr-18 20:33N 34°32' E 135°19'0 0.0
2014-Apr-18 19:33N 34°32' E 135°19'0 0.0
2014-Apr-18 18:33N 34°32' E 135°19'0 0.0
2014-Apr-18 17:32N 34°32' E 135°19'0 0.0
2014-Apr-18 16:33N 34°32' E 135°19'0 0.0
2014-Apr-18 15:33N 34°32' E 135°19'0 0.0
2014-Apr-18 14:33N 34°32' E 135°19'1110.9
2014-Apr-18 13:33N 34°25' E 135°09'1613.2
2014-Apr-18 12:21N 34°10' E 135°02'23010.6
2014-Apr-17 14:32N 34°51' E 139°38'82 9.0
2014-Apr-17 05:24N 35°55' E 140°41'2 0.3
2014-Apr-16 23:11N 35°53' E 140°41'3 4.5
2014-Apr-16 22:27N 35°56' E 140°42'19 5.7
2014-Apr-16 19:08N 35°40' E 140°55'1012.1
2014-Apr-16 18:20N 35°33' E 140°48'2312.8
2014-Apr-16 16:32N 35°14' E 140°31'1613.9
2014-Apr-16 15:23N 35°04' E 140°17'1213.2
2014-Apr-16 14:30N 34°57' E 140°05'1612.1
2014-Apr-16 13:11N 34°53' E 139°46'812.5
2014-Apr-16 12:33N 35°01' E 139°43'1312.7
2014-Apr-16 11:33N 35°13' E 139°46'1211.9
2014-Apr-16 10:33N 35°25' E 139°44'1312.9
2014-Apr-16 09:33N 35°32' E 139°57'6 6.0
2014-Apr-16 08:29N 35°32' E 140°05'0 0.0
2014-Apr-16 07:32N 35°32' E 140°05'0 0.0
2014-Apr-16 06:32N 35°32' E 140°05'0 0.0
2014-Apr-16 05:29N 35°32' E 140°05'0 0.0
2014-Apr-16 04:32N 35°32' E 140°05'0 0.0
2014-Apr-16 03:29N 35°32' E 140°05'0 0.0
2014-Apr-16 02:29N 35°32' E 140°05'0 0.0
2014-Apr-16 01:29N 35°32' E 140°05'0 0.0
2014-Apr-16 00:29N 35°32' E 140°05'0 0.0
2014-Apr-15 23:32N 35°32' E 140°05'1 1.1
2014-Apr-15 22:24N 35°34' E 140°05'0 0.0
2014-Apr-15 21:33N 35°34' E 140°05'0 0.0
2014-Apr-15 20:30N 35°34' E 140°05'0 0.0
2014-Apr-15 19:33N 35°34' E 140°05'0 0.0
2014-Apr-15 18:33N 35°34' E 140°05'0 0.0
2014-Apr-15 17:30N 35°34' E 140°05'0 0.0
2014-Apr-15 16:24N 35°34' E 140°05'0 0.0
2014-Apr-15 15:33N 35°34' E 140°05'0 0.0
2014-Apr-15 14:33N 35°34' E 140°05'0 0.0
2014-Apr-15 11:33N 35°34' E 140°05'0 0.0
2014-Apr-15 10:33N 35°34' E 140°05'0 0.0
2014-Apr-15 09:30N 35°34' E 140°05'0 0.0
2014-Apr-15 08:30N 35°34' E 140°05'0 0.1
2014-Apr-15 07:33N 35°34' E 140°05'0 0.0
2014-Apr-15 06:33N 35°34' E 140°05'0 0.0
2014-Apr-15 05:33N 35°34' E 140°05'0 0.0
2014-Apr-15 03:34N 35°34' E 140°05'1211.5
2014-Apr-15 02:34N 35°31' E 139°51'3 0.5
2014-Apr-14 20:33N 35°29' E 139°48'0 0.1
2014-Apr-14 19:31N 35°29' E 139°48'0 0.1
2014-Apr-14 18:32N 35°29' E 139°49'1110.9
2014-Apr-14 17:34N 35°19' E 139°44'1212.1
2014-Apr-14 16:34N 35°07' E 139°45'1312.3
2014-Apr-14 15:31N 34°59' E 139°33'21 0.4
2014-Apr-12 12:30N 34°52' E 139°57'1412.5
2014-Apr-12 11:24N 35°00' E 140°11'64 4.3
2014-Apr-11 20:23N 35°58' E 140°44'45 6.4
2014-Apr-11 13:24N 35°15' E 140°31'2613.5
2014-Apr-11 11:30N 34°58' E 140°07'25 0.5
2014-Apr-09 13:32N 34°51' E 139°38'  

Dump ship's entire track history

sailing weather and tide predictions

No.3tokuyomaru — JD3132 — position and weather